sensor_id;sensor_type;location;lat;lon;timestamp;P1;durP1;ratioP1;P2;durP2;ratioP2
52047;SDS011;46904;49.438;8.752;2023-05-10T00:00:17;0.77;;;0.65;;
52047;SDS011;46904;49.438;8.752;2023-05-10T00:02:42;2.00;;;0.60;;
52047;SDS011;46904;49.438;8.752;2023-05-10T00:05:08;0.82;;;0.80;;
52047;SDS011;46904;49.438;8.752;2023-05-10T00:07:34;0.60;;;0.60;;
52047;SDS011;46904;49.438;8.752;2023-05-10T00:09:59;0.70;;;0.70;;
52047;SDS011;46904;49.438;8.752;2023-05-10T00:12:25;1.58;;;0.60;;
52047;SDS011;46904;49.438;8.752;2023-05-10T00:14:50;0.70;;;0.70;;
52047;SDS011;46904;49.438;8.752;2023-05-10T00:17:16;0.60;;;0.60;;
52047;SDS011;46904;49.438;8.752;2023-05-10T00:19:41;0.55;;;0.55;;
52047;SDS011;46904;49.438;8.752;2023-05-10T00:22:07;1.00;;;0.70;;
52047;SDS011;46904;49.438;8.752;2023-05-10T00:24:32;1.00;;;0.80;;
52047;SDS011;46904;49.438;8.752;2023-05-10T00:26:58;0.82;;;0.80;;
52047;SDS011;46904;49.438;8.752;2023-05-10T00:29:24;0.77;;;0.77;;
52047;SDS011;46904;49.438;8.752;2023-05-10T00:31:49;0.70;;;0.70;;
52047;SDS011;46904;49.438;8.752;2023-05-10T00:34:15;1.40;;;0.88;;
52047;SDS011;46904;49.438;8.752;2023-05-10T00:36:40;0.70;;;0.70;;
52047;SDS011;46904;49.438;8.752;2023-05-10T00:39:06;0.90;;;0.60;;
52047;SDS011;46904;49.438;8.752;2023-05-10T00:41:32;0.70;;;0.70;;
52047;SDS011;46904;49.438;8.752;2023-05-10T00:43:57;0.63;;;0.63;;
52047;SDS011;46904;49.438;8.752;2023-05-10T00:46:23;1.05;;;0.90;;
52047;SDS011;46904;49.438;8.752;2023-05-10T00:48:49;0.68;;;0.68;;
52047;SDS011;46904;49.438;8.752;2023-05-10T00:51:14;1.02;;;0.60;;
52047;SDS011;46904;49.438;8.752;2023-05-10T00:53:43;0.70;;;0.70;;
52047;SDS011;46904;49.438;8.752;2023-05-10T00:56:09;0.80;;;0.80;;
52047;SDS011;46904;49.438;8.752;2023-05-10T00:58:36;0.90;;;0.77;;
52047;SDS011;46904;49.438;8.752;2023-05-10T01:01:01;0.70;;;0.70;;
52047;SDS011;46904;49.438;8.752;2023-05-10T01:03:27;0.90;;;0.75;;
52047;SDS011;46904;49.438;8.752;2023-05-10T01:05:53;1.08;;;0.98;;
52047;SDS011;46904;49.438;8.752;2023-05-10T01:13:47;1.98;;;0.90;;
52047;SDS011;46904;49.438;8.752;2023-05-10T01:16:15;1.70;;;0.90;;
52047;SDS011;46904;49.438;8.752;2023-05-10T01:18:41;1.55;;;0.80;;
52047;SDS011;46904;49.438;8.752;2023-05-10T01:23:50;0.95;;;0.90;;
52047;SDS011;46904;49.438;8.752;2023-05-10T01:26:23;0.70;;;0.70;;
52047;SDS011;46904;49.438;8.752;2023-05-10T01:34:27;2.85;;;0.60;;
52047;SDS011;46904;49.438;8.752;2023-05-10T01:37:07;0.80;;;0.80;;
52047;SDS011;46904;49.438;8.752;2023-05-10T01:42:20;0.82;;;0.80;;
52047;SDS011;46904;49.438;8.752;2023-05-10T01:44:53;0.60;;;0.60;;
52047;SDS011;46904;49.438;8.752;2023-05-10T01:49:54;0.80;;;0.80;;
52047;SDS011;46904;49.438;8.752;2023-05-10T01:52:22;0.93;;;0.82;;
52047;SDS011;46904;49.438;8.752;2023-05-10T01:54:51;5.32;;;1.10;;
52047;SDS011;46904;49.438;8.752;2023-05-10T01:57:19;1.25;;;1.10;;
52047;SDS011;46904;49.438;8.752;2023-05-10T01:59:45;0.68;;;0.68;;
52047;SDS011;46904;49.438;8.752;2023-05-10T02:02:15;1.08;;;1.00;;
52047;SDS011;46904;49.438;8.752;2023-05-10T02:04:41;1.33;;;0.80;;
52047;SDS011;46904;49.438;8.752;2023-05-10T02:07:07;0.80;;;0.80;;
52047;SDS011;46904;49.438;8.752;2023-05-10T02:09:33;0.80;;;0.80;;
52047;SDS011;46904;49.438;8.752;2023-05-10T02:12:00;1.02;;;0.93;;
52047;SDS011;46904;49.438;8.752;2023-05-10T02:14:26;0.88;;;0.80;;
52047;SDS011;46904;49.438;8.752;2023-05-10T02:16:52;1.35;;;0.77;;
52047;SDS011;46904;49.438;8.752;2023-05-10T02:19:19;1.05;;;0.95;;
52047;SDS011;46904;49.438;8.752;2023-05-10T02:21:45;1.00;;;0.98;;
52047;SDS011;46904;49.438;8.752;2023-05-10T02:24:11;0.85;;;0.77;;
52047;SDS011;46904;49.438;8.752;2023-05-10T02:26:37;1.13;;;0.88;;
52047;SDS011;46904;49.438;8.752;2023-05-10T02:29:03;0.80;;;0.80;;
52047;SDS011;46904;49.438;8.752;2023-05-10T02:31:30;0.80;;;0.80;;
52047;SDS011;46904;49.438;8.752;2023-05-10T02:33:57;1.63;;;0.80;;
52047;SDS011;46904;49.438;8.752;2023-05-10T02:36:23;0.80;;;0.80;;
52047;SDS011;46904;49.438;8.752;2023-05-10T02:38:50;1.27;;;0.77;;
52047;SDS011;46904;49.438;8.752;2023-05-10T02:41:17;0.90;;;0.70;;
52047;SDS011;46904;49.438;8.752;2023-05-10T02:43:43;1.73;;;0.75;;
52047;SDS011;46904;49.438;8.752;2023-05-10T02:46:09;0.85;;;0.85;;
52047;SDS011;46904;49.438;8.752;2023-05-10T02:48:35;1.30;;;0.90;;
52047;SDS011;46904;49.438;8.752;2023-05-10T02:51:01;1.00;;;0.90;;
52047;SDS011;46904;49.438;8.752;2023-05-10T02:53:31;1.05;;;0.90;;
52047;SDS011;46904;49.438;8.752;2023-05-10T02:55:59;1.05;;;1.00;;
52047;SDS011;46904;49.438;8.752;2023-05-10T02:58:25;1.00;;;0.88;;
52047;SDS011;46904;49.438;8.752;2023-05-10T03:00:51;1.15;;;1.08;;
52047;SDS011;46904;49.438;8.752;2023-05-10T03:03:17;1.17;;;1.08;;
52047;SDS011;46904;49.438;8.752;2023-05-10T03:05:42;1.20;;;1.10;;
52047;SDS011;46904;49.438;8.752;2023-05-10T03:08:08;1.20;;;1.10;;
52047;SDS011;46904;49.438;8.752;2023-05-10T03:10:34;1.20;;;1.10;;
52047;SDS011;46904;49.438;8.752;2023-05-10T03:13:07;0.90;;;0.90;;
52047;SDS011;46904;49.438;8.752;2023-05-10T03:18:28;1.20;;;0.90;;
52047;SDS011;46904;49.438;8.752;2023-05-10T03:20:57;1.15;;;1.02;;
52047;SDS011;46904;49.438;8.752;2023-05-10T03:23:27;1.30;;;0.95;;
52047;SDS011;46904;49.438;8.752;2023-05-10T03:25:55;1.30;;;1.20;;
52047;SDS011;46904;49.438;8.752;2023-05-10T03:28:20;2.28;;;0.93;;
52047;SDS011;46904;49.438;8.752;2023-05-10T03:30:46;2.35;;;1.00;;
52047;SDS011;46904;49.438;8.752;2023-05-10T03:33:12;1.13;;;1.02;;
52047;SDS011;46904;49.438;8.752;2023-05-10T03:35:38;1.17;;;1.08;;
52047;SDS011;46904;49.438;8.752;2023-05-10T03:38:03;1.90;;;1.20;;
52047;SDS011;46904;49.438;8.752;2023-05-10T03:40:29;1.65;;;1.55;;
52047;SDS011;46904;49.438;8.752;2023-05-10T03:42:55;1.52;;;1.42;;
52047;SDS011;46904;49.438;8.752;2023-05-10T03:45:21;1.77;;;1.67;;
52047;SDS011;46904;49.438;8.752;2023-05-10T03:47:46;1.63;;;1.52;;
52047;SDS011;46904;49.438;8.752;2023-05-10T03:50:12;1.75;;;1.65;;
52047;SDS011;46904;49.438;8.752;2023-05-10T03:52:37;1.70;;;1.60;;
52047;SDS011;46904;49.438;8.752;2023-05-10T03:55:03;3.13;;;1.92;;
52047;SDS011;46904;49.438;8.752;2023-05-10T03:57:29;1.55;;;1.45;;
52047;SDS011;46904;49.438;8.752;2023-05-10T03:59:54;2.00;;;1.90;;
52047;SDS011;46904;49.438;8.752;2023-05-10T04:02:20;2.22;;;1.83;;
52047;SDS011;46904;49.438;8.752;2023-05-10T04:04:46;1.75;;;1.65;;
52047;SDS011;46904;49.438;8.752;2023-05-10T04:07:11;2.40;;;1.73;;
52047;SDS011;46904;49.438;8.752;2023-05-10T04:09:37;2.05;;;1.85;;
52047;SDS011;46904;49.438;8.752;2023-05-10T04:12:02;1.73;;;1.58;;
52047;SDS011;46904;49.438;8.752;2023-05-10T04:14:28;1.60;;;1.50;;
52047;SDS011;46904;49.438;8.752;2023-05-10T04:16:54;1.80;;;1.70;;
52047;SDS011;46904;49.438;8.752;2023-05-10T04:19:19;1.33;;;1.23;;
52047;SDS011;46904;49.438;8.752;2023-05-10T04:21:45;2.90;;;1.42;;
52047;SDS011;46904;49.438;8.752;2023-05-10T04:24:10;1.88;;;1.75;;
52047;SDS011;46904;49.438;8.752;2023-05-10T04:26:36;1.60;;;1.50;;
52047;SDS011;46904;49.438;8.752;2023-05-10T04:29:01;2.10;;;1.90;;
52047;SDS011;46904;49.438;8.752;2023-05-10T04:31:27;2.13;;;1.67;;
52047;SDS011;46904;49.438;8.752;2023-05-10T04:33:52;1.90;;;1.77;;
52047;SDS011;46904;49.438;8.752;2023-05-10T04:36:18;1.50;;;1.40;;
52047;SDS011;46904;49.438;8.752;2023-05-10T04:38:43;1.60;;;1.50;;
52047;SDS011;46904;49.438;8.752;2023-05-10T04:41:09;1.98;;;1.42;;
52047;SDS011;46904;49.438;8.752;2023-05-10T04:43:36;1.75;;;1.65;;
52047;SDS011;46904;49.438;8.752;2023-05-10T04:46:02;1.98;;;1.77;;
52047;SDS011;46904;49.438;8.752;2023-05-10T04:48:27;1.63;;;1.52;;
52047;SDS011;46904;49.438;8.752;2023-05-10T04:50:53;1.83;;;1.73;;
52047;SDS011;46904;49.438;8.752;2023-05-10T04:53:19;1.70;;;1.55;;
52047;SDS011;46904;49.438;8.752;2023-05-10T04:55:44;1.63;;;1.50;;
52047;SDS011;46904;49.438;8.752;2023-05-10T04:58:10;1.55;;;1.45;;
52047;SDS011;46904;49.438;8.752;2023-05-10T05:00:35;1.70;;;1.60;;
52047;SDS011;46904;49.438;8.752;2023-05-10T05:03:01;1.70;;;1.60;;
52047;SDS011;46904;49.438;8.752;2023-05-10T05:05:26;1.70;;;1.60;;
52047;SDS011;46904;49.438;8.752;2023-05-10T05:07:52;1.40;;;1.30;;
52047;SDS011;46904;49.438;8.752;2023-05-10T05:10:18;2.35;;;1.70;;
52047;SDS011;46904;49.438;8.752;2023-05-10T05:12:43;1.77;;;1.67;;
52047;SDS011;46904;49.438;8.752;2023-05-10T05:15:09;1.58;;;1.40;;
52047;SDS011;46904;49.438;8.752;2023-05-10T05:17:34;2.28;;;1.70;;
52047;SDS011;46904;49.438;8.752;2023-05-10T05:20:00;1.33;;;1.23;;
52047;SDS011;46904;49.438;8.752;2023-05-10T05:22:26;1.52;;;1.42;;
52047;SDS011;46904;49.438;8.752;2023-05-10T05:24:51;1.85;;;1.65;;
52047;SDS011;46904;49.438;8.752;2023-05-10T05:27:17;2.65;;;1.95;;
52047;SDS011;46904;49.438;8.752;2023-05-10T05:29:42;4.00;;;1.50;;
52047;SDS011;46904;49.438;8.752;2023-05-10T05:32:08;1.70;;;1.60;;
52047;SDS011;46904;49.438;8.752;2023-05-10T05:34:33;3.20;;;1.65;;
52047;SDS011;46904;49.438;8.752;2023-05-10T05:36:59;1.83;;;1.67;;
52047;SDS011;46904;49.438;8.752;2023-05-10T05:39:24;1.95;;;1.80;;
52047;SDS011;46904;49.438;8.752;2023-05-10T05:41:50;2.40;;;2.20;;
52047;SDS011;46904;49.438;8.752;2023-05-10T05:44:15;2.75;;;2.10;;
52047;SDS011;46904;49.438;8.752;2023-05-10T05:46:41;2.58;;;2.33;;
52047;SDS011;46904;49.438;8.752;2023-05-10T05:49:06;3.00;;;2.33;;
52047;SDS011;46904;49.438;8.752;2023-05-10T05:51:32;2.40;;;2.20;;
52047;SDS011;46904;49.438;8.752;2023-05-10T05:53:58;2.55;;;2.20;;
52047;SDS011;46904;49.438;8.752;2023-05-10T05:56:23;2.35;;;2.15;;
52047;SDS011;46904;49.438;8.752;2023-05-10T05:58:49;2.10;;;1.90;;
52047;SDS011;46904;49.438;8.752;2023-05-10T06:01:15;3.72;;;2.63;;
52047;SDS011;46904;49.438;8.752;2023-05-10T06:03:40;2.15;;;1.95;;
52047;SDS011;46904;49.438;8.752;2023-05-10T06:06:06;2.00;;;1.80;;
52047;SDS011;46904;49.438;8.752;2023-05-10T06:08:31;2.30;;;2.10;;
52047;SDS011;46904;49.438;8.752;2023-05-10T06:10:57;2.03;;;1.92;;
52047;SDS011;46904;49.438;8.752;2023-05-10T06:13:22;2.20;;;2.00;;
52047;SDS011;46904;49.438;8.752;2023-05-10T06:15:48;2.95;;;2.63;;
52047;SDS011;46904;49.438;8.752;2023-05-10T06:18:14;3.55;;;2.45;;
52047;SDS011;46904;49.438;8.752;2023-05-10T06:20:40;2.70;;;2.50;;
52047;SDS011;46904;49.438;8.752;2023-05-10T06:23:06;3.55;;;2.10;;
52047;SDS011;46904;49.438;8.752;2023-05-10T06:25:31;2.63;;;2.42;;
52047;SDS011;46904;49.438;8.752;2023-05-10T06:27:57;2.67;;;2.10;;
52047;SDS011;46904;49.438;8.752;2023-05-10T06:30:23;2.83;;;2.55;;
52047;SDS011;46904;49.438;8.752;2023-05-10T06:32:48;3.45;;;2.22;;
52047;SDS011;46904;49.438;8.752;2023-05-10T06:35:14;2.30;;;2.10;;
52047;SDS011;46904;49.438;8.752;2023-05-10T06:37:39;4.53;;;2.53;;
52047;SDS011;46904;49.438;8.752;2023-05-10T06:40:05;2.70;;;2.50;;
52047;SDS011;46904;49.438;8.752;2023-05-10T06:42:31;4.18;;;3.47;;
52047;SDS011;46904;49.438;8.752;2023-05-10T06:44:57;2.80;;;2.60;;
52047;SDS011;46904;49.438;8.752;2023-05-10T06:47:22;2.47;;;2.28;;
52047;SDS011;46904;49.438;8.752;2023-05-10T06:49:48;2.80;;;2.60;;
52047;SDS011;46904;49.438;8.752;2023-05-10T06:52:13;2.75;;;2.53;;
52047;SDS011;46904;49.438;8.752;2023-05-10T06:54:39;2.88;;;2.45;;
52047;SDS011;46904;49.438;8.752;2023-05-10T06:57:04;2.50;;;2.30;;
52047;SDS011;46904;49.438;8.752;2023-05-10T06:59:30;2.60;;;2.40;;
52047;SDS011;46904;49.438;8.752;2023-05-10T07:01:55;2.78;;;2.38;;
52047;SDS011;46904;49.438;8.752;2023-05-10T07:04:21;3.28;;;2.50;;
52047;SDS011;46904;49.438;8.752;2023-05-10T07:06:46;3.53;;;2.47;;
52047;SDS011;46904;49.438;8.752;2023-05-10T07:09:12;3.90;;;2.45;;
52047;SDS011;46904;49.438;8.752;2023-05-10T07:11:37;3.45;;;2.40;;
52047;SDS011;46904;49.438;8.752;2023-05-10T07:14:03;2.40;;;2.20;;
52047;SDS011;46904;49.438;8.752;2023-05-10T07:16:29;2.45;;;1.90;;
52047;SDS011;46904;49.438;8.752;2023-05-10T07:18:54;4.05;;;2.47;;
52047;SDS011;46904;49.438;8.752;2023-05-10T07:21:20;2.50;;;2.30;;
52047;SDS011;46904;49.438;8.752;2023-05-10T07:23:45;2.85;;;2.55;;
52047;SDS011;46904;49.438;8.752;2023-05-10T07:26:11;2.25;;;2.05;;
52047;SDS011;46904;49.438;8.752;2023-05-10T07:28:36;1.92;;;1.75;;
52047;SDS011;46904;49.438;8.752;2023-05-10T07:31:02;1.70;;;1.60;;
52047;SDS011;46904;49.438;8.752;2023-05-10T07:33:27;1.92;;;1.73;;
52047;SDS011;46904;49.438;8.752;2023-05-10T07:35:53;1.67;;;1.58;;
52047;SDS011;46904;49.438;8.752;2023-05-10T07:38:18;2.35;;;1.75;;
52047;SDS011;46904;49.438;8.752;2023-05-10T07:40:44;2.65;;;1.90;;
52047;SDS011;46904;49.438;8.752;2023-05-10T07:43:10;2.42;;;2.22;;
52047;SDS011;46904;49.438;8.752;2023-05-10T07:45:35;2.35;;;2.15;;
52047;SDS011;46904;49.438;8.752;2023-05-10T07:48:01;2.40;;;2.20;;
52047;SDS011;46904;49.438;8.752;2023-05-10T07:50:26;2.15;;;1.95;;
52047;SDS011;46904;49.438;8.752;2023-05-10T07:52:52;1.83;;;1.73;;
52047;SDS011;46904;49.438;8.752;2023-05-10T07:55:18;2.42;;;2.22;;
52047;SDS011;46904;49.438;8.752;2023-05-10T07:57:43;2.25;;;2.00;;
52047;SDS011;46904;49.438;8.752;2023-05-10T08:00:11;2.20;;;2.00;;
52047;SDS011;46904;49.438;8.752;2023-05-10T08:02:37;1.80;;;1.70;;
52047;SDS011;46904;49.438;8.752;2023-05-10T08:05:03;2.47;;;2.28;;
52047;SDS011;46904;49.438;8.752;2023-05-10T08:07:28;5.57;;;3.03;;
52047;SDS011;46904;49.438;8.752;2023-05-10T08:09:54;2.20;;;2.03;;
52047;SDS011;46904;49.438;8.752;2023-05-10T08:12:19;1.67;;;1.58;;
52047;SDS011;46904;49.438;8.752;2023-05-10T08:14:45;3.00;;;2.08;;
52047;SDS011;46904;49.438;8.752;2023-05-10T08:17:10;2.75;;;2.20;;
52047;SDS011;46904;49.438;8.752;2023-05-10T08:19:36;2.30;;;2.10;;
52047;SDS011;46904;49.438;8.752;2023-05-10T08:22:01;2.38;;;1.95;;
52047;SDS011;46904;49.438;8.752;2023-05-10T08:24:27;2.38;;;2.05;;
52047;SDS011;46904;49.438;8.752;2023-05-10T08:26:52;2.72;;;1.73;;
52047;SDS011;46904;49.438;8.752;2023-05-10T08:29:18;2.45;;;1.75;;
52047;SDS011;46904;49.438;8.752;2023-05-10T08:31:44;3.20;;;1.90;;
52047;SDS011;46904;49.438;8.752;2023-05-10T08:34:09;1.73;;;1.63;;
52047;SDS011;46904;49.438;8.752;2023-05-10T08:36:35;1.65;;;1.55;;
52047;SDS011;46904;49.438;8.752;2023-05-10T08:39:00;1.45;;;1.35;;
52047;SDS011;46904;49.438;8.752;2023-05-10T08:41:26;1.20;;;1.10;;
52047;SDS011;46904;49.438;8.752;2023-05-10T08:43:52;1.67;;;1.58;;
52047;SDS011;46904;49.438;8.752;2023-05-10T08:46:19;1.67;;;1.58;;
52047;SDS011;46904;49.438;8.752;2023-05-10T08:48:45;1.90;;;1.42;;
52047;SDS011;46904;49.438;8.752;2023-05-10T08:51:18;1.67;;;1.40;;
52047;SDS011;46904;49.438;8.752;2023-05-10T08:53:44;1.45;;;1.10;;
52047;SDS011;46904;49.438;8.752;2023-05-10T08:56:09;1.48;;;1.38;;
52047;SDS011;46904;49.438;8.752;2023-05-10T08:58:35;1.83;;;1.20;;
52047;SDS011;46904;49.438;8.752;2023-05-10T09:01:01;1.48;;;1.38;;
52047;SDS011;46904;49.438;8.752;2023-05-10T09:03:27;3.55;;;1.30;;
52047;SDS011;46904;49.438;8.752;2023-05-10T09:05:52;1.90;;;1.40;;
52047;SDS011;46904;49.438;8.752;2023-05-10T09:08:18;3.28;;;1.48;;
52047;SDS011;46904;49.438;8.752;2023-05-10T09:10:45;1.50;;;1.40;;
52047;SDS011;46904;49.438;8.752;2023-05-10T09:13:11;1.45;;;1.33;;
52047;SDS011;46904;49.438;8.752;2023-05-10T09:15:37;1.42;;;1.33;;
52047;SDS011;46904;49.438;8.752;2023-05-10T09:18:03;1.83;;;1.27;;
52047;SDS011;46904;49.438;8.752;2023-05-10T09:20:28;1.50;;;1.35;;
52047;SDS011;46904;49.438;8.752;2023-05-10T09:22:54;1.58;;;1.10;;
52047;SDS011;46904;49.438;8.752;2023-05-10T09:25:19;1.48;;;1.38;;
52047;SDS011;46904;49.438;8.752;2023-05-10T09:27:46;1.33;;;1.23;;
52047;SDS011;46904;49.438;8.752;2023-05-10T09:30:16;1.50;;;1.40;;
52047;SDS011;46904;49.438;8.752;2023-05-10T09:32:43;1.17;;;1.08;;
52047;SDS011;46904;49.438;8.752;2023-05-10T09:37:34;1.35;;;1.23;;
52047;SDS011;46904;49.438;8.752;2023-05-10T09:39:59;1.38;;;1.20;;
52047;SDS011;46904;49.438;8.752;2023-05-10T09:42:25;1.48;;;1.20;;
52047;SDS011;46904;49.438;8.752;2023-05-10T09:44:51;1.73;;;1.10;;
52047;SDS011;46904;49.438;8.752;2023-05-10T09:47:17;1.33;;;1.20;;
52047;SDS011;46904;49.438;8.752;2023-05-10T09:49:42;1.17;;;1.08;;
52047;SDS011;46904;49.438;8.752;2023-05-10T09:52:08;1.23;;;1.08;;
52047;SDS011;46904;49.438;8.752;2023-05-10T09:54:33;2.80;;;1.50;;
52047;SDS011;46904;49.438;8.752;2023-05-10T09:56:59;2.08;;;1.33;;
52047;SDS011;46904;49.438;8.752;2023-05-10T09:59:25;1.17;;;1.02;;
52047;SDS011;46904;49.438;8.752;2023-05-10T10:01:51;1.20;;;1.10;;
52047;SDS011;46904;49.438;8.752;2023-05-10T10:04:17;1.00;;;1.00;;
52047;SDS011;46904;49.438;8.752;2023-05-10T10:06:43;1.20;;;1.10;;
52047;SDS011;46904;49.438;8.752;2023-05-10T10:09:08;1.30;;;1.20;;
52047;SDS011;46904;49.438;8.752;2023-05-10T10:11:38;1.42;;;1.08;;
52047;SDS011;46904;49.438;8.752;2023-05-10T10:14:04;2.05;;;1.15;;
52047;SDS011;46904;49.438;8.752;2023-05-10T10:16:30;1.48;;;1.20;;
52047;SDS011;46904;49.438;8.752;2023-05-10T10:18:56;1.98;;;1.10;;
52047;SDS011;46904;49.438;8.752;2023-05-10T10:21:22;1.27;;;1.00;;
52047;SDS011;46904;49.438;8.752;2023-05-10T10:23:47;1.30;;;1.20;;
52047;SDS011;46904;49.438;8.752;2023-05-10T10:26:13;2.38;;;1.00;;
52047;SDS011;46904;49.438;8.752;2023-05-10T10:28:42;1.17;;;1.00;;
52047;SDS011;46904;49.438;8.752;2023-05-10T10:31:14;1.05;;;0.95;;
52047;SDS011;46904;49.438;8.752;2023-05-10T10:33:55;1.10;;;1.00;;
52047;SDS011;46904;49.438;8.752;2023-05-10T10:36:21;0.98;;;0.90;;
52047;SDS011;46904;49.438;8.752;2023-05-10T10:47:00;1.20;;;1.10;;
52047;SDS011;46904;49.438;8.752;2023-05-10T10:49:26;1.05;;;0.95;;
52047;SDS011;46904;49.438;8.752;2023-05-10T10:54:37;1.30;;;1.08;;
52047;SDS011;46904;49.438;8.752;2023-05-10T10:57:10;2.40;;;1.20;;
52047;SDS011;46904;49.438;8.752;2023-05-10T10:59:35;0.85;;;0.85;;
52047;SDS011;46904;49.438;8.752;2023-05-10T11:02:01;1.58;;;0.90;;
52047;SDS011;46904;49.438;8.752;2023-05-10T11:04:27;3.47;;;1.60;;
52047;SDS011;46904;49.438;8.752;2023-05-10T11:06:52;3.17;;;1.30;;
52047;SDS011;46904;49.438;8.752;2023-05-10T11:09:41;1.45;;;1.10;;
52047;SDS011;46904;49.438;8.752;2023-05-10T11:12:10;1.27;;;0.90;;
52047;SDS011;46904;49.438;8.752;2023-05-10T11:14:35;2.45;;;1.00;;
52047;SDS011;46904;49.438;8.752;2023-05-10T11:17:01;1.00;;;0.95;;
52047;SDS011;46904;49.438;8.752;2023-05-10T11:19:27;3.22;;;1.25;;
52047;SDS011;46904;49.438;8.752;2023-05-10T11:22:11;1.50;;;1.00;;
52047;SDS011;46904;49.438;8.752;2023-05-10T11:24:38;1.20;;;1.10;;
52047;SDS011;46904;49.438;8.752;2023-05-10T11:27:03;1.67;;;1.00;;
52047;SDS011;46904;49.438;8.752;2023-05-10T11:29:29;1.13;;;1.02;;
52047;SDS011;46904;49.438;8.752;2023-05-10T11:31:57;0.93;;;0.82;;
52047;SDS011;46904;49.438;8.752;2023-05-10T11:36:52;1.10;;;0.95;;
52047;SDS011;46904;49.438;8.752;2023-05-10T11:41:44;1.52;;;1.42;;
52047;SDS011;46904;49.438;8.752;2023-05-10T11:44:12;1.23;;;1.13;;
52047;SDS011;46904;49.438;8.752;2023-05-10T11:46:38;1.23;;;1.13;;
52047;SDS011;46904;49.438;8.752;2023-05-10T11:49:03;1.02;;;0.93;;
52047;SDS011;46904;49.438;8.752;2023-05-10T11:51:29;1.10;;;1.00;;
52047;SDS011;46904;49.438;8.752;2023-05-10T11:53:55;1.25;;;0.90;;
52047;SDS011;46904;49.438;8.752;2023-05-10T11:56:21;1.20;;;1.10;;
52047;SDS011;46904;49.438;8.752;2023-05-10T11:58:52;1.00;;;1.00;;
52047;SDS011;46904;49.438;8.752;2023-05-10T12:01:17;1.77;;;1.00;;
52047;SDS011;46904;49.438;8.752;2023-05-10T12:03:43;1.67;;;1.40;;
52047;SDS011;46904;49.438;8.752;2023-05-10T12:06:09;1.10;;;1.00;;
52047;SDS011;46904;49.438;8.752;2023-05-10T12:08:34;1.65;;;0.90;;
52047;SDS011;46904;49.438;8.752;2023-05-10T12:11:07;0.88;;;0.88;;
52047;SDS011;46904;49.438;8.752;2023-05-10T12:13:37;0.90;;;0.88;;
52047;SDS011;46904;49.438;8.752;2023-05-10T12:16:12;1.42;;;1.10;;
52047;SDS011;46904;49.438;8.752;2023-05-10T12:18:38;1.73;;;0.90;;
52047;SDS011;46904;49.438;8.752;2023-05-10T12:21:05;0.80;;;0.80;;
52047;SDS011;46904;49.438;8.752;2023-05-10T12:23:30;1.40;;;0.98;;
52047;SDS011;46904;49.438;8.752;2023-05-10T12:26:01;1.02;;;0.90;;
52047;SDS011;46904;49.438;8.752;2023-05-10T12:28:29;0.80;;;0.80;;
52047;SDS011;46904;49.438;8.752;2023-05-10T12:30:54;1.05;;;0.88;;
52047;SDS011;46904;49.438;8.752;2023-05-10T12:33:20;1.88;;;1.38;;
52047;SDS011;46904;49.438;8.752;2023-05-10T12:35:52;0.80;;;0.80;;
52047;SDS011;46904;49.438;8.752;2023-05-10T12:38:34;1.08;;;0.90;;
52047;SDS011;46904;49.438;8.752;2023-05-10T12:41:01;1.10;;;0.93;;
52047;SDS011;46904;49.438;8.752;2023-05-10T12:43:27;1.35;;;1.25;;
52047;SDS011;46904;49.438;8.752;2023-05-10T12:45:52;1.55;;;1.00;;
52047;SDS011;46904;49.438;8.752;2023-05-10T12:48:18;3.80;;;1.10;;
52047;SDS011;46904;49.438;8.752;2023-05-10T12:50:44;0.85;;;0.85;;
52047;SDS011;46904;49.438;8.752;2023-05-10T12:53:10;1.10;;;1.00;;
52047;SDS011;46904;49.438;8.752;2023-05-10T12:55:35;2.28;;;1.20;;
52047;SDS011;46904;49.438;8.752;2023-05-10T12:58:01;2.15;;;1.10;;
52047;SDS011;46904;49.438;8.752;2023-05-10T13:00:27;3.20;;;0.90;;
52047;SDS011;46904;49.438;8.752;2023-05-10T13:02:52;1.15;;;1.00;;
52047;SDS011;46904;49.438;8.752;2023-05-10T13:05:18;3.25;;;1.17;;
52047;SDS011;46904;49.438;8.752;2023-05-10T13:07:43;3.80;;;0.88;;
52047;SDS011;46904;49.438;8.752;2023-05-10T13:10:09;2.17;;;1.30;;
52047;SDS011;46904;49.438;8.752;2023-05-10T13:12:35;1.27;;;0.90;;
52047;SDS011;46904;49.438;8.752;2023-05-10T13:15:00;2.50;;;0.95;;
52047;SDS011;46904;49.438;8.752;2023-05-10T13:17:26;0.85;;;0.85;;
52047;SDS011;46904;49.438;8.752;2023-05-10T13:19:52;1.13;;;0.90;;
52047;SDS011;46904;49.438;8.752;2023-05-10T13:22:17;1.00;;;0.90;;
52047;SDS011;46904;49.438;8.752;2023-05-10T13:24:43;1.10;;;0.82;;
52047;SDS011;46904;49.438;8.752;2023-05-10T13:27:08;2.20;;;1.20;;
52047;SDS011;46904;49.438;8.752;2023-05-10T13:29:34;2.22;;;0.98;;
52047;SDS011;46904;49.438;8.752;2023-05-10T13:31:59;2.22;;;0.98;;
52047;SDS011;46904;49.438;8.752;2023-05-10T13:34:25;1.05;;;0.90;;
52047;SDS011;46904;49.438;8.752;2023-05-10T13:36:50;0.80;;;0.80;;
52047;SDS011;46904;49.438;8.752;2023-05-10T13:39:16;0.80;;;0.80;;
52047;SDS011;46904;49.438;8.752;2023-05-10T13:41:41;1.77;;;0.90;;
52047;SDS011;46904;49.438;8.752;2023-05-10T13:44:07;0.98;;;0.80;;
52047;SDS011;46904;49.438;8.752;2023-05-10T13:46:32;1.00;;;0.90;;
52047;SDS011;46904;49.438;8.752;2023-05-10T13:48:58;1.90;;;0.90;;
52047;SDS011;46904;49.438;8.752;2023-05-10T13:51:23;0.80;;;0.80;;
52047;SDS011;46904;49.438;8.752;2023-05-10T13:53:49;2.42;;;1.10;;
52047;SDS011;46904;49.438;8.752;2023-05-10T13:56:15;1.20;;;0.93;;
52047;SDS011;46904;49.438;8.752;2023-05-10T13:58:40;2.92;;;1.48;;
52047;SDS011;46904;49.438;8.752;2023-05-10T14:01:06;2.03;;;0.90;;
52047;SDS011;46904;49.438;8.752;2023-05-10T14:03:32;2.13;;;0.82;;
52047;SDS011;46904;49.438;8.752;2023-05-10T14:05:57;0.82;;;0.77;;
52047;SDS011;46904;49.438;8.752;2023-05-10T14:08:23;2.13;;;0.70;;
52047;SDS011;46904;49.438;8.752;2023-05-10T14:10:48;0.70;;;0.70;;
52047;SDS011;46904;49.438;8.752;2023-05-10T14:13:14;1.15;;;0.93;;
52047;SDS011;46904;49.438;8.752;2023-05-10T14:15:40;0.70;;;0.70;;
52047;SDS011;46904;49.438;8.752;2023-05-10T14:18:05;0.80;;;0.75;;
52047;SDS011;46904;49.438;8.752;2023-05-10T14:20:31;0.90;;;0.80;;
52047;SDS011;46904;49.438;8.752;2023-05-10T14:22:56;1.02;;;0.70;;
52047;SDS011;46904;49.438;8.752;2023-05-10T14:25:22;0.80;;;0.73;;
52047;SDS011;46904;49.438;8.752;2023-05-10T14:27:48;0.75;;;0.60;;
52047;SDS011;46904;49.438;8.752;2023-05-10T14:30:14;1.50;;;0.88;;
52047;SDS011;46904;49.438;8.752;2023-05-10T14:32:39;0.70;;;0.70;;
52047;SDS011;46904;49.438;8.752;2023-05-10T14:35:05;0.70;;;0.50;;
52047;SDS011;46904;49.438;8.752;2023-05-10T14:37:31;0.63;;;0.63;;
52047;SDS011;46904;49.438;8.752;2023-05-10T14:39:56;0.80;;;0.80;;
52047;SDS011;46904;49.438;8.752;2023-05-10T14:42:22;3.00;;;0.98;;
52047;SDS011;46904;49.438;8.752;2023-05-10T14:44:47;0.60;;;0.60;;
52047;SDS011;46904;49.438;8.752;2023-05-10T14:47:13;1.70;;;0.70;;
52047;SDS011;46904;49.438;8.752;2023-05-10T14:49:38;3.20;;;0.70;;
52047;SDS011;46904;49.438;8.752;2023-05-10T14:52:04;1.42;;;0.63;;
52047;SDS011;46904;49.438;8.752;2023-05-10T14:54:29;1.40;;;0.60;;
52047;SDS011;46904;49.438;8.752;2023-05-10T14:56:55;0.73;;;0.70;;
52047;SDS011;46904;49.438;8.752;2023-05-10T14:59:20;0.68;;;0.60;;
52047;SDS011;46904;49.438;8.752;2023-05-10T15:01:46;1.38;;;0.70;;
52047;SDS011;46904;49.438;8.752;2023-05-10T15:04:11;2.15;;;0.70;;
52047;SDS011;46904;49.438;8.752;2023-05-10T15:06:37;1.77;;;1.33;;
52047;SDS011;46904;49.438;8.752;2023-05-10T15:09:03;1.10;;;0.63;;
52047;SDS011;46904;49.438;8.752;2023-05-10T15:11:28;0.80;;;0.70;;
52047;SDS011;46904;49.438;8.752;2023-05-10T15:13:54;0.60;;;0.60;;
52047;SDS011;46904;49.438;8.752;2023-05-10T15:16:19;1.10;;;0.70;;
52047;SDS011;46904;49.438;8.752;2023-05-10T15:18:45;0.93;;;0.70;;
52047;SDS011;46904;49.438;8.752;2023-05-10T15:21:11;0.95;;;0.70;;